Du har inga inställningar för hoppväder.nu

Hoppväder.nu

Senast uppdaterat 02:28

UTC-tid

2022-05-24 kl. 00:28


Sol och måne

Solen går upp 4:05 och går ner 22:22 (beräknade cirkatider)
Nästa fullmåne blir om 21 dagar (2022-06-14)

METAR

ESSV (Visby)
(8 minuter sedan)
ESSV 240020Z AUTO 13009KT 9999 NCD 06/05 Q1011=















TAF

ESSV (Visby)
ESSV





Kodnycklar till TAF och METAR






LHP

(Visby är område se33f i Delområde 1)

Prognos är inte uppdaterad






Preliminär prognos